Time;durP1;ratioP1;P1;durP2;ratioP2;P2;SDS_P1;SDS_P2;PMS_P1;PMS_P2;Temp;Humidity;BMP_temperature;BMP_pressure;BME280_temperature;BME280_humidity;BME280_pressure;Samples;Min_cycle;Max_cycle;Signal;HPM_P1;HPM_P2
2021/01/09 00:02:23;;;;;;;0.57;0.30;;;0.70;92.90;;;;;;5094743;28;20040;-74
2021/01/09 00:04:49;;;;;;;0.95;0.50;;;0.70;92.90;;;;;;5076150;28;20048;-75
2021/01/09 00:07:14;;;;;;;0.73;0.52;;;0.80;93.00;;;;;;5094231;28;20044;-74
2021/01/09 00:09:40;;;;;;;0.95;0.40;;;0.60;93.00;;;;;;5094352;28;20123;-73
2021/01/09 00:12:11;;;;;;;1.50;0.50;;;0.70;93.00;;;;;;5094005;28;20040;-73
2021/01/09 00:14:37;;;;;;;0.77;0.50;;;0.60;93.00;;;;;;5094265;28;20076;-75
2021/01/09 00:17:02;;;;;;;1.02;0.50;;;0.60;93.00;;;;;;5093879;28;20072;-75
2021/01/09 00:19:29;;;;;;;0.90;0.40;;;0.50;93.00;;;;;;5094184;28;20111;-75
2021/01/09 00:21:55;;;;;;;0.40;0.38;;;0.50;93.00;;;;;;5094959;28;20121;-76
2021/01/09 00:24:20;;;;;;;0.40;0.30;;;0.60;93.00;;;;;;5095151;28;20043;-75
2021/01/09 00:26:46;;;;;;;0.45;0.30;;;0.60;93.00;;;;;;5094771;28;20040;-75
2021/01/09 00:29:12;;;;;;;1.23;0.43;;;0.50;93.10;;;;;;5076847;28;20044;-76
2021/01/09 00:31:37;;;;;;;0.52;0.32;;;0.60;93.10;;;;;;5093830;28;20048;-75
2021/01/09 00:34:04;;;;;;;0.40;0.32;;;0.50;93.00;;;;;;5094741;28;20044;-75
2021/01/09 00:36:30;;;;;;;0.60;0.47;;;0.50;93.10;;;;;;5093606;28;20075;-75
2021/01/09 00:38:55;;;;;;;0.93;0.50;;;0.50;93.10;;;;;;5093398;28;20474;-74
2021/01/09 00:41:30;;;;;;;0.75;0.40;;;0.50;93.10;;;;;;5093936;28;20034;-76
2021/01/09 00:43:57;;;;;;;0.75;0.57;;;0.50;93.10;;;;;;5093865;28;20066;-75
2021/01/09 00:46:23;;;;;;;0.80;0.35;;;0.50;93.10;;;;;;5093637;28;20113;-75
2021/01/09 00:48:49;;;;;;;0.75;0.40;;;0.50;93.10;;;;;;5093854;28;20040;-74
2021/01/09 00:51:16;;;;;;;1.40;0.63;;;0.40;93.10;;;;;;5094256;28;20036;-75
2021/01/09 00:53:42;;;;;;;0.80;0.40;;;0.40;93.10;;;;;;5093492;28;20043;-75
2021/01/09 00:56:08;;;;;;;0.73;0.40;;;0.40;93.10;;;;;;5093265;28;20052;-74
2021/01/09 00:58:34;;;;;;;0.47;0.38;;;0.30;93.10;;;;;;5093601;28;20036;-73
2021/01/09 01:01:01;;;;;;;0.65;0.30;;;0.40;93.10;;;;;;5075543;28;20101;-74
2021/01/09 01:03:27;;;;;;;1.30;0.50;;;0.30;93.10;;;;;;5093763;28;20470;-73
2021/01/09 01:05:54;;;;;;;0.32;0.30;;;0.30;93.10;;;;;;5093568;28;20052;-73
2021/01/09 01:08:19;;;;;;;0.47;0.30;;;0.20;93.20;;;;;;5093570;28;20516;-74
2021/01/09 01:10:46;;;;;;;0.38;0.32;;;0.20;93.20;;;;;;5093628;28;20044;-73
2021/01/09 01:13:12;;;;;;;0.57;0.32;;;0.10;93.10;;;;;;5074939;28;20087;-74
2021/01/09 01:15:38;;;;;;;1.00;0.55;;;0.10;93.20;;;;;;5093028;28;20036;-73
2021/01/09 01:18:04;;;;;;;0.57;0.38;;;0.10;93.20;;;;;;5092959;28;20094;-73
2021/01/09 01:20:29;;;;;;;0.30;0.30;;;0.10;93.20;;;;;;5075131;28;20101;-74
2021/01/09 01:22:55;;;;;;;0.30;0.30;;;0.10;93.20;;;;;;5093374;28;20044;-74
2021/01/09 01:25:21;;;;;;;0.50;0.40;;;0.00;93.20;;;;;;5093142;28;20040;-73
2021/01/09 01:27:47;;;;;;;1.15;0.65;;;0.00;93.20;;;;;;5074882;28;20044;-74
2021/01/09 01:30:13;;;;;;;0.85;0.40;;;0.00;93.30;;;;;;5092989;28;20063;-74
2021/01/09 01:32:38;;;;;;;0.38;0.30;;;-0.10;93.20;;;;;;5075253;28;20044;-73
2021/01/09 01:35:05;;;;;;;0.68;0.43;;;-0.10;93.30;;;;;;5092781;28;20047;-74
2021/01/09 01:37:31;;;;;;;0.50;0.30;;;-0.10;93.30;;;;;;5093064;28;20073;-72
2021/01/09 01:39:56;;;;;;;0.90;0.38;;;-0.10;93.30;;;;;;5092845;28;20044;-73
2021/01/09 01:42:22;;;;;;;0.93;0.30;;;-0.10;93.30;;;;;;5074602;28;20485;-74
2021/01/09 01:44:48;;;;;;;0.52;0.30;;;-0.20;93.20;;;;;;5074935;28;20044;-74
2021/01/09 01:47:19;;;;;;;1.73;0.40;;;-0.10;93.30;;;;;;5092909;28;20043;-73
2021/01/09 01:49:46;;;;;;;0.40;0.40;;;-0.10;93.30;;;;;;5091889;28;20096;-74
2021/01/09 01:52:14;;;;;;;0.25;0.25;;;-0.10;93.30;;;;;;5074381;28;20152;-74
2021/01/09 01:54:42;;;;;;;0.50;0.30;;;-0.10;93.30;;;;;;5092489;28;20047;-73
2021/01/09 01:57:12;;;;;;;0.63;0.38;;;-0.10;93.20;;;;;;5092516;28;20101;-73
2021/01/09 01:59:38;;;;;;;0.43;0.20;;;-0.10;93.50;;;;;;5093003;28;20039;-73
2021/01/09 02:02:07;;;;;;;0.47;0.35;;;-0.10;93.20;;;;;;5074726;28;20042;-74
2021/01/09 02:04:32;;;;;;;0.47;0.40;;;-0.20;93.20;;;;;;5092275;28;20063;-73
2021/01/09 02:07:05;;;;;;;0.52;0.38;;;-0.10;93.20;;;;;;5092280;28;20080;-73
2021/01/09 02:09:35;;;;;;;0.38;0.28;;;-0.20;93.20;;;;;;5092370;28;20462;-74
2021/01/09 02:12:16;;;;;;;0.40;0.25;;;-0.20;93.20;;;;;;5092699;28;20047;-74
2021/01/09 02:14:48;;;;;;;0.40;0.32;;;-0.20;93.20;;;;;;5073900;28;20230;-74
2021/01/09 02:17:15;;;;;;;0.30;0.30;;;-0.20;93.20;;;;;;5092387;28;20063;-75
2021/01/09 02:19:43;;;;;;;0.45;0.30;;;-0.20;93.20;;;;;;5074656;28;20552;-74
2021/01/09 02:22:12;;;;;;;0.25;0.20;;;-0.30;93.20;;;;;;5096794;28;20051;-77
2021/01/09 02:24:38;;;;;;;0.57;0.30;;;-0.30;93.20;;;;;;5098657;28;20044;-76
2021/01/09 02:27:06;;;;;;;0.43;0.20;;;-0.30;93.20;;;;;;5060005;28;20043;-77
2021/01/09 02:29:35;;;;;;;0.40;0.30;;;-0.40;93.20;;;;;;5080655;28;20048;-76
2021/01/09 02:32:04;;;;;;;0.40;0.30;;;-0.40;93.20;;;;;;5073821;28;20075;-75
2021/01/09 02:34:50;;;;;;;0.30;0.30;;;-0.40;93.20;;;;;;5092428;28;20044;-75
2021/01/09 02:37:16;;;;;;;1.10;0.50;;;-0.40;93.20;;;;;;5076700;28;20127;-74
2021/01/09 02:39:43;;;;;;;0.35;0.22;;;-0.40;93.20;;;;;;5092178;28;20488;-75
2021/01/09 02:42:09;;;;;;;0.47;0.32;;;-0.50;93.20;;;;;;5090396;28;20047;-73
2021/01/09 02:44:36;;;;;;;0.22;0.22;;;-0.50;93.30;;;;;;5073647;28;20064;-75
2021/01/09 02:47:04;;;;;;;0.20;0.20;;;-0.50;93.30;;;;;;5092252;28;20046;-74
2021/01/09 02:49:30;;;;;;;0.32;0.30;;;-0.50;93.30;;;;;;5093021;28;20127;-74
2021/01/09 02:51:55;;;;;;;0.60;0.30;;;-0.50;93.30;;;;;;5094417;28;20063;-75
2021/01/09 02:54:21;;;;;;;0.60;0.43;;;-0.50;93.30;;;;;;5092562;28;20048;-75
2021/01/09 02:56:46;;;;;;;0.30;0.30;;;-0.60;93.30;;;;;;5092566;28;20413;-73
2021/01/09 02:59:12;;;;;;;0.40;0.25;;;-0.60;93.20;;;;;;5091952;28;20060;-73
2021/01/09 03:01:38;;;;;;;0.40;0.40;;;-0.70;93.20;;;;;;5076089;28;20040;-73
2021/01/09 03:04:04;;;;;;;0.20;0.20;;;-0.70;93.30;;;;;;5095139;28;20061;-74
2021/01/09 03:06:31;;;;;;;0.43;0.30;;;-0.60;93.30;;;;;;5095076;28;20489;-73
2021/01/09 03:08:57;;;;;;;0.50;0.30;;;-0.70;93.30;;;;;;5093202;28;20504;-73
2021/01/09 03:11:23;;;;;;;0.63;0.40;;;-0.70;93.30;;;;;;5077022;28;20047;-72
2021/01/09 03:13:49;;;;;;;0.80;0.35;;;-0.70;93.30;;;;;;5095322;28;20048;-72
2021/01/09 03:16:15;;;;;;;0.98;0.40;;;-0.60;93.30;;;;;;5095340;28;20122;-72
2021/01/09 03:18:41;;;;;;;0.22;0.22;;;-0.70;93.30;;;;;;5060169;28;20035;-73
2021/01/09 03:21:07;;;;;;;0.80;0.30;;;-0.70;93.30;;;;;;5095080;28;20052;-72
2021/01/09 03:23:33;;;;;;;0.47;0.35;;;-0.80;93.20;;;;;;5094959;28;20385;-72
2021/01/09 03:25:59;;;;;;;0.40;0.30;;;-0.80;93.20;;;;;;5076933;28;20490;-73
2021/01/09 03:28:25;;;;;;;0.98;0.30;;;-0.80;93.30;;;;;;5095254;28;20051;-72
2021/01/09 03:30:51;;;;;;;0.20;0.20;;;-0.80;93.30;;;;;;5094652;28;20033;-72
2021/01/09 03:33:17;;;;;;;0.30;0.20;;;-0.80;93.30;;;;;;5095250;28;20040;-72
2021/01/09 03:35:43;;;;;;;0.32;0.30;;;-0.80;93.30;;;;;;5094802;28;20036;-72
2021/01/09 03:38:09;;;;;;;0.40;0.20;;;-0.80;93.30;;;;;;5094950;28;20852;-72
2021/01/09 03:40:35;;;;;;;0.43;0.30;;;-0.80;93.30;;;;;;5094659;28;20090;-72
2021/01/09 03:43:00;;;;;;;0.50;0.40;;;-0.90;93.30;;;;;;5076789;28;20063;-72
2021/01/09 03:45:26;;;;;;;0.20;0.20;;;-0.80;93.30;;;;;;5094567;28;20482;-73
2021/01/09 03:47:52;;;;;;;0.65;0.40;;;-0.90;93.20;;;;;;5094449;28;20114;-73
2021/01/09 03:50:18;;;;;;;0.70;0.30;;;-0.90;93.20;;;;;;5094766;28;20038;-72
2021/01/09 03:52:43;;;;;;;0.45;0.30;;;-0.90;93.30;;;;;;5094612;28;20036;-72
2021/01/09 03:55:10;;;;;;;0.22;0.22;;;-1.00;93.20;;;;;;5094163;28;20036;-72
2021/01/09 03:57:35;;;;;;;0.57;0.45;;;-1.00;93.30;;;;;;5094520;28;20040;-72
2021/01/09 04:00:03;;;;;;;0.47;0.30;;;-1.00;93.30;;;;;;5076536;28;20089;-72
2021/01/09 04:02:28;;;;;;;0.30;0.30;;;-1.00;93.60;;;;;;5094754;28;20039;-72
2021/01/09 04:04:54;;;;;;;0.30;0.28;;;-1.00;93.30;;;;;;5094676;28;20040;-72
2021/01/09 04:07:20;;;;;;;0.30;0.25;;;-1.10;93.30;;;;;;5094518;28;20032;-72
2021/01/09 04:09:45;;;;;;;0.40;0.22;;;-1.00;93.30;;;;;;5076022;28;20401;-72
2021/01/09 04:12:11;;;;;;;0.28;0.28;;;-1.00;93.30;;;;;;5093053;28;20043;-72
2021/01/09 04:14:37;;;;;;;0.15;0.15;;;-1.00;93.30;;;;;;5094587;28;20048;-72
2021/01/09 04:17:02;;;;;;;0.47;0.30;;;-1.10;93.20;;;;;;5093992;28;20059;-73
2021/01/09 04:19:28;;;;;;;0.43;0.25;;;-1.10;93.30;;;;;;5076070;28;20069;-73
2021/01/09 04:21:54;;;;;;;0.10;0.10;;;-1.10;93.30;;;;;;5094686;28;20028;-72
2021/01/09 04:24:22;;;;;;;0.77;0.30;;;-1.10;93.30;;;;;;5094643;28;20028;-72
2021/01/09 04:27:01;;;;;;;0.60;0.40;;;-1.00;93.30;;;;;;5094453;28;20063;-72
2021/01/09 04:29:30;;;;;;;1.02;0.30;;;-1.10;93.30;;;;;;5093405;28;20047;-72
2021/01/09 04:31:56;;;;;;;0.90;0.50;;;-1.10;93.20;;;;;;5093925;28;20118;-72
2021/01/09 04:34:24;;;;;;;0.85;0.50;;;-1.10;93.30;;;;;;5075705;28;20040;-72
2021/01/09 04:36:50;;;;;;;0.35;0.30;;;-1.20;93.20;;;;;;5072183;28;20383;-72
2021/01/09 04:39:17;;;;;;;0.68;0.30;;;-1.20;93.20;;;;;;5094023;28;20066;-73
2021/01/09 04:41:43;;;;;;;0.50;0.40;;;-1.20;93.20;;;;;;5094237;28;20528;-72
2021/01/09 04:44:10;;;;;;;0.30;0.30;;;-1.20;93.30;;;;;;5093649;28;20040;-73
2021/01/09 04:46:53;;;;;;;0.30;0.20;;;-1.30;93.30;;;;;;5091512;28;20042;-73
2021/01/09 04:49:22;;;;;;;0.73;0.50;;;-1.30;93.30;;;;;;5093645;28;20400;-73
2021/01/09 04:51:50;;;;;;;0.20;0.20;;;-1.30;93.30;;;;;;5094023;28;20098;-72
2021/01/09 04:54:18;;;;;;;0.30;0.28;;;-1.20;93.30;;;;;;5075389;28;20048;-73
2021/01/09 04:56:47;;;;;;;0.52;0.30;;;-1.30;93.30;;;;;;5093458;28;20409;-72
2021/01/09 04:59:14;;;;;;;0.50;0.30;;;-1.30;93.30;;;;;;5093494;28;20055;-73
2021/01/09 05:01:41;;;;;;;0.35;0.30;;;-1.40;93.30;;;;;;5093444;28;20093;-72
2021/01/09 05:04:08;;;;;;;0.52;0.38;;;-1.30;93.30;;;;;;5091504;28;20109;-72
2021/01/09 05:06:33;;;;;;;1.48;0.50;;;-1.40;93.30;;;;;;5093363;28;20044;-73
2021/01/09 05:08:59;;;;;;;0.30;0.30;;;-1.40;93.30;;;;;;5093807;28;20186;-72
2021/01/09 05:11:25;;;;;;;0.32;0.30;;;-1.40;93.30;;;;;;5075388;28;20051;-73
2021/01/09 05:13:51;;;;;;;0.75;0.40;;;-1.40;93.30;;;;;;5093184;28;20036;-73
2021/01/09 05:16:17;;;;;;;0.30;0.28;;;-1.40;93.30;;;;;;5093188;28;20647;-73
2021/01/09 05:18:43;;;;;;;0.73;0.38;;;-1.40;93.30;;;;;;5093314;28;20049;-73
2021/01/09 05:21:10;;;;;;;0.30;0.25;;;-1.40;93.30;;;;;;5093582;28;20040;-73
2021/01/09 05:26:22;;;;;;;0.75;0.55;;;-1.40;93.30;;;;;;5093122;28;20558;-72
2021/01/09 05:28:53;;;;;;;0.60;0.20;;;-1.50;93.30;;;;;;5093071;28;20371;-73
2021/01/09 05:31:21;;;;;;;0.20;0.10;;;-1.40;93.30;;;;;;5092922;28;20512;-72
2021/01/09 05:33:47;;;;;;;0.30;0.20;;;-1.40;93.30;;;;;;5075340;28;20402;-72
2021/01/09 05:36:14;;;;;;;0.52;0.30;;;-1.50;93.20;;;;;;5093033;28;20043;-72
2021/01/09 05:38:42;;;;;;;0.30;0.20;;;-1.50;93.20;;;;;;5093060;28;20036;-73
2021/01/09 05:41:11;;;;;;;0.73;0.30;;;-1.50;93.20;;;;;;5093458;28;20043;-72
2021/01/09 05:43:37;;;;;;;0.55;0.30;;;-1.50;93.30;;;;;;5093009;28;20454;-72
2021/01/09 05:46:04;;;;;;;0.30;0.20;;;-1.60;93.30;;;;;;5092750;28;20036;-72
2021/01/09 05:48:32;;;;;;;0.30;0.30;;;-1.60;93.30;;;;;;5092761;28;20036;-72
2021/01/09 05:51:03;;;;;;;0.13;0.13;;;-1.60;93.30;;;;;;5074618;28;20050;-72
2021/01/09 05:53:40;;;;;;;0.47;0.30;;;-1.60;93.30;;;;;;5090813;28;20063;-72
2021/01/09 05:56:06;;;;;;;0.45;0.30;;;-1.60;93.30;;;;;;5073958;28;20051;-72
2021/01/09 05:58:34;;;;;;;0.43;0.20;;;-1.60;93.30;;;;;;5074431;28;20436;-72
2021/01/09 06:01:04;;;;;;;0.30;0.30;;;-1.50;93.30;;;;;;5074416;28;20525;-72
2021/01/09 06:03:37;;;;;;;0.75;0.20;;;-1.70;93.30;;;;;;5092856;28;20482;-72
2021/01/09 06:06:25;;;;;;;0.20;0.20;;;-1.70;93.30;;;;;;5092588;28;20075;-72
2021/01/09 06:08:58;;;;;;;0.32;0.28;;;-1.60;93.30;;;;;;5091320;28;20091;-73
2021/01/09 06:11:36;;;;;;;0.25;0.25;;;-1.60;93.30;;;;;;5074327;28;20560;-72
2021/01/09 06:14:04;;;;;;;0.20;0.20;;;-1.70;93.30;;;;;;5091167;28;20047;-72
2021/01/09 06:16:32;;;;;;;0.32;0.28;;;-1.70;93.30;;;;;;5074537;28;20048;-72
2021/01/09 06:18:59;;;;;;;0.43;0.28;;;-1.70;93.30;;;;;;5092430;28;20040;-72
2021/01/09 06:21:27;;;;;;;0.10;0.10;;;-1.70;93.30;;;;;;5092520;28;20036;-73
2021/01/09 06:23:54;;;;;;;0.30;0.20;;;-1.60;93.30;;;;;;5092001;28;20449;-72
2021/01/09 06:26:21;;;;;;;0.20;0.20;;;-1.70;93.30;;;;;;5092546;28;20071;-72
2021/01/09 06:28:51;;;;;;;0.30;0.20;;;-1.80;93.20;;;;;;5092312;28;20048;-73
2021/01/09 06:31:19;;;;;;;0.60;0.30;;;-1.70;93.30;;;;;;5057754;28;20386;-72
2021/01/09 06:33:49;;;;;;;0.30;0.30;;;-1.70;93.30;;;;;;5074246;28;20390;-73
2021/01/09 06:36:15;;;;;;;0.80;0.10;;;-1.70;93.30;;;;;;5094643;28;20063;-72
2021/01/09 06:38:42;;;;;;;0.28;0.28;;;-1.80;93.30;;;;;;5077418;28;20150;-73
2021/01/09 06:41:14;;;;;;;0.20;0.20;;;-1.80;93.30;;;;;;5096032;28;20440;-72
2021/01/09 06:43:45;;;;;;;0.30;0.30;;;-1.70;93.30;;;;;;5096237;28;20375;-73
2021/01/09 06:46:12;;;;;;;0.30;0.17;;;-1.70;93.30;;;;;;5077539;28;20067;-72
2021/01/09 06:48:43;;;;;;;0.30;0.20;;;-1.70;93.30;;;;;;5095711;28;20336;-72
2021/01/09 06:51:40;;;;;;;0.40;0.20;;;-1.70;93.30;;;;;;5095374;28;20039;-72
2021/01/09 06:54:21;;;;;;;0.47;0.30;;;-1.60;93.30;;;;;;5075934;28;20466;-73
2021/01/09 06:56:48;;;;;;;0.40;0.25;;;-1.70;93.20;;;;;;5096139;28;20075;-72
2021/01/09 06:59:31;;;;;;;0.35;0.30;;;-1.60;93.20;;;;;;5077589;28;20040;-73
2021/01/09 07:02:12;;;;;;;0.15;0.15;;;-1.60;93.20;;;;;;5095320;28;20535;-72
2021/01/09 07:04:53;;;;;;;0.40;0.20;;;-1.70;93.10;;;;;;5095831;28;20535;-72
2021/01/09 07:07:32;;;;;;;0.45;0.20;;;-1.70;93.10;;;;;;5095355;28;20044;-72
2021/01/09 07:10:15;;;;;;;0.20;0.20;;;-1.70;93.10;;;;;;5095426;28;20126;-72
2021/01/09 07:12:48;;;;;;;0.20;0.20;;;-1.70;93.10;;;;;;5095314;28;20051;-73
2021/01/09 07:15:15;;;;;;;0.50;0.20;;;-1.70;93.10;;;;;;5095257;28;20067;-72
2021/01/09 07:17:51;;;;;;;0.68;0.40;;;-1.70;93.20;;;;;;5095883;28;20115;-72
2021/01/09 07:20:20;;;;;;;0.30;0.25;;;-1.70;93.20;;;;;;5095615;28;20048;-73
2021/01/09 07:22:49;;;;;;;0.40;0.20;;;-1.60;93.20;;;;;;5095070;28;20039;-72
2021/01/09 07:25:39;;;;;;;0.70;0.30;;;-1.60;93.20;;;;;;5095019;28;20032;-73
2021/01/09 07:28:22;;;;;;;0.20;0.20;;;-1.60;93.20;;;;;;5095231;28;20119;-73
2021/01/09 07:31:06;;;;;;;0.70;0.35;;;-1.60;93.10;;;;;;5076806;28;20063;-73
2021/01/09 07:33:33;;;;;;;0.45;0.38;;;-1.50;93.20;;;;;;5095010;28;20040;-73
2021/01/09 07:36:00;;;;;;;0.30;0.20;;;-1.50;93.10;;;;;;5094859;28;20048;-72
2021/01/09 07:38:26;;;;;;;0.28;0.28;;;-1.50;93.10;;;;;;5094986;28;20044;-72
2021/01/09 07:40:57;;;;;;;0.52;0.30;;;-1.40;93.10;;;;;;5094994;28;20027;-72
2021/01/09 07:43:35;;;;;;;0.77;0.20;;;-1.40;93.10;;;;;;5095199;28;20055;-72
2021/01/09 07:46:02;;;;;;;0.50;0.20;;;-1.40;93.00;;;;;;5075615;28;20036;-73
2021/01/09 07:48:32;;;;;;;0.40;0.38;;;-1.30;93.00;;;;;;5094708;28;20486;-72
2021/01/09 07:50:58;;;;;;;0.32;0.32;;;-1.30;93.00;;;;;;5095089;28;20032;-72
2021/01/09 07:53:26;;;;;;;0.55;0.30;;;-1.30;93.10;;;;;;5094546;28;20044;-72
2021/01/09 07:55:53;;;;;;;0.60;0.30;;;-1.30;93.00;;;;;;5094242;28;20097;-72
2021/01/09 07:58:39;;;;;;;0.40;0.30;;;-1.20;93.00;;;;;;5094168;28;20032;-72
2021/01/09 08:01:04;;;;;;;0.45;0.30;;;-1.20;93.00;;;;;;5093412;28;20486;-72
2021/01/09 08:03:32;;;;;;;0.43;0.22;;;-1.20;93.00;;;;;;5094165;28;20078;-72
2021/01/09 08:05:58;;;;;;;0.65;0.40;;;-1.20;93.00;;;;;;5076218;28;20067;-72
2021/01/09 08:08:25;;;;;;;0.28;0.20;;;-1.10;93.00;;;;;;5094199;28;20050;-72
2021/01/09 08:10:51;;;;;;;0.40;0.40;;;-1.10;93.00;;;;;;5094249;28;20190;-72
2021/01/09 08:13:17;;;;;;;0.70;0.40;;;-1.10;93.00;;;;;;5075953;28;20068;-72
2021/01/09 08:15:45;;;;;;;0.95;0.40;;;-1.10;93.00;;;;;;5093982;28;20127;-72
2021/01/09 08:18:10;;;;;;;0.55;0.40;;;-1.10;93.00;;;;;;5093950;28;20040;-72
2021/01/09 08:20:36;;;;;;;0.45;0.30;;;-1.00;93.00;;;;;;5076167;28;20043;-73
2021/01/09 08:23:05;;;;;;;0.80;0.40;;;-1.00;93.00;;;;;;5059113;28;20067;-73
2021/01/09 08:25:34;;;;;;;1.15;0.40;;;-1.00;92.90;;;;;;5094155;28;20033;-73
2021/01/09 08:28:01;;;;;;;0.43;0.30;;;-0.90;93.00;;;;;;5074535;28;20044;-72
2021/01/09 08:30:29;;;;;;;0.52;0.30;;;-0.90;92.90;;;;;;5074373;28;20032;-72
2021/01/09 08:33:06;;;;;;;0.35;0.35;;;-0.80;92.90;;;;;;5094328;28;20098;-73
2021/01/09 08:35:32;;;;;;;0.70;0.40;;;-0.80;92.90;;;;;;5093932;28;20036;-73
2021/01/09 08:37:59;;;;;;;0.57;0.40;;;-0.80;92.90;;;;;;5094387;28;20036;-72
2021/01/09 08:40:25;;;;;;;0.55;0.30;;;-0.80;92.90;;;;;;5094430;28;20055;-73
2021/01/09 08:42:54;;;;;;;0.40;0.30;;;-0.70;92.90;;;;;;5075701;28;20039;-73
2021/01/09 08:45:44;;;;;;;1.60;0.30;;;-0.70;92.80;;;;;;5094189;28;20454;-72
2021/01/09 08:48:14;;;;;;;0.57;0.40;;;-0.60;92.80;;;;;;5093275;28;20086;-72
2021/01/09 08:50:46;;;;;;;0.85;0.40;;;-0.60;92.80;;;;;;5094271;28;20051;-72
2021/01/09 08:53:12;;;;;;;;;;;-0.40;92.90;;;;;;5094214;28;20051;-72
2021/01/09 08:55:39;;;;;;;0.30;0.20;;;-0.40;92.80;;;;;;5093539;28;19912;-72
2021/01/09 08:58:14;;;;;;;0.43;0.30;;;-0.30;92.80;;;;;;5074872;28;20044;-72
2021/01/09 09:00:40;;;;;;;0.17;0.17;;;-0.20;92.70;;;;;;5092684;28;20040;-73
2021/01/09 09:03:09;;;;;;;0.20;0.20;;;-0.20;92.70;;;;;;5093446;28;20032;-73
2021/01/09 09:05:37;;;;;;;0.70;0.40;;;-0.10;92.70;;;;;;5093396;28;20490;-72
2021/01/09 09:08:07;;;;;;;0.93;0.50;;;0.00;92.60;;;;;;5093411;28;20036;-73
2021/01/09 09:10:34;;;;;;;0.73;0.50;;;0.00;92.60;;;;;;5093895;28;20540;-73
2021/01/09 09:13:14;;;;;;;0.43;0.40;;;0.10;92.60;;;;;;5093666;28;20028;-72
2021/01/09 09:15:40;;;;;;;0.35;0.35;;;0.10;92.60;;;;;;5093242;28;20032;-72
2021/01/09 09:18:08;;;;;;;0.50;0.40;;;0.20;92.50;;;;;;5093105;28;20043;-72
2021/01/09 09:20:35;;;;;;;0.60;0.30;;;0.20;92.50;;;;;;5076051;28;20474;-73
2021/01/09 09:23:19;;;;;;;0.77;0.43;;;0.30;92.50;;;;;;5093529;28;20118;-73
2021/01/09 09:25:45;;;;;;;0.43;0.40;;;0.30;92.50;;;;;;5093355;28;20040;-72
2021/01/09 09:28:12;;;;;;;0.70;0.50;;;0.40;92.50;;;;;;5093359;28;20047;-72
2021/01/09 09:30:38;;;;;;;0.43;0.40;;;0.40;92.50;;;;;;5093371;28;20044;-72
2021/01/09 09:33:13;;;;;;;0.80;0.60;;;0.50;92.60;;;;;;5093589;28;20058;-72
2021/01/09 09:35:39;;;;;;;0.40;0.40;;;0.40;92.50;;;;;;5074868;28;20130;-73
2021/01/09 09:38:06;;;;;;;0.60;0.40;;;0.50;92.50;;;;;;5092824;28;20036;-72
2021/01/09 09:40:34;;;;;;;0.73;0.50;;;0.50;92.50;;;;;;5075515;28;20036;-73
2021/01/09 09:43:16;;;;;;;1.00;0.50;;;0.50;92.50;;;;;;5093513;28;20516;-73
2021/01/09 09:45:56;;;;;;;0.28;0.22;;;0.50;92.50;;;;;;5092837;28;20044;-72
2021/01/09 09:48:34;;;;;;;0.52;0.30;;;0.60;92.60;;;;;;5093408;28;20435;-72
2021/01/09 09:51:09;;;;;;;0.73;0.43;;;0.60;92.60;;;;;;5093205;28;20094;-72
2021/01/09 09:53:38;;;;;;;0.60;0.40;;;0.60;92.60;;;;;;5074806;28;20044;-72
2021/01/09 09:56:21;;;;;;;1.98;0.80;;;0.60;92.60;;;;;;5093203;28;20048;-73
2021/01/09 09:58:48;;;;;;;1.10;0.60;;;0.60;92.60;;;;;;5092725;28;20055;-72
2021/01/09 10:01:19;;;;;;;1.05;0.50;;;0.50;92.60;;;;;;5092607;28;20039;-72
2021/01/09 10:03:46;;;;;;;0.77;0.43;;;0.60;92.70;;;;;;5092676;28;20039;-72
2021/01/09 10:06:12;;;;;;;1.15;0.60;;;0.60;92.70;;;;;;5092511;28;20044;-72
2021/01/09 10:08:38;;;;;;;0.68;0.52;;;0.70;92.70;;;;;;5092541;28;20040;-72
2021/01/09 10:11:04;;;;;;;0.93;0.52;;;0.70;92.70;;;;;;5073764;28;20047;-72
2021/01/09 10:13:32;;;;;;;1.45;0.47;;;0.80;92.70;;;;;;5092421;28;20046;-72
2021/01/09 10:15:58;;;;;;;0.80;0.60;;;0.80;92.70;;;;;;5057978;28;20044;-72
2021/01/09 10:18:24;;;;;;;1.23;0.75;;;0.90;92.70;;;;;;5092456;28;20043;-72
2021/01/09 10:20:51;;;;;;;0.70;0.50;;;1.00;92.60;;;;;;5092546;28;20490;-72
2021/01/09 10:23:16;;;;;;;0.35;0.30;;;1.20;92.60;;;;;;5092834;28;20123;-73
2021/01/09 10:25:43;;;;;;;0.45;0.45;;;1.30;92.50;;;;;;5092953;28;20520;-72
2021/01/09 10:28:08;;;;;;;0.73;0.47;;;1.40;92.50;;;;;;5092468;28;20371;-73
2021/01/09 10:30:34;;;;;;;0.60;0.55;;;1.50;92.40;;;;;;5092904;28;20102;-72
2021/01/09 10:33:00;;;;;;;0.40;0.30;;;1.50;92.30;;;;;;5092409;28;20507;-72
2021/01/09 10:35:26;;;;;;;0.82;0.50;;;1.60;92.30;;;;;;5092410;28;20040;-72
2021/01/09 10:37:51;;;;;;;0.57;0.50;;;1.60;92.30;;;;;;5057846;28;20047;-72
2021/01/09 10:40:17;;;;;;;1.05;0.50;;;1.50;92.30;;;;;;5092298;28;20071;-72
2021/01/09 10:42:43;;;;;;;0.45;0.35;;;1.60;92.30;;;;;;5092801;28;20097;-72
2021/01/09 10:45:12;;;;;;;0.73;0.60;;;1.60;92.30;;;;;;5092235;28;20032;-72
2021/01/09 10:47:38;;;;;;;0.57;0.40;;;1.60;92.40;;;;;;5092677;28;20036;-72
2021/01/09 10:50:05;;;;;;;0.60;0.50;;;1.70;92.40;;;;;;5092157;28;20177;-72
2021/01/09 10:52:31;;;;;;;0.73;0.40;;;1.80;92.40;;;;;;5074419;28;20040;-72
2021/01/09 10:54:56;;;;;;;1.02;0.63;;;1.90;92.50;;;;;;5090104;28;20101;-72
2021/01/09 10:57:22;;;;;;;0.65;0.60;;;1.90;92.40;;;;;;5092412;28;20072;-72
2021/01/09 10:59:48;;;;;;;0.85;0.60;;;2.00;92.40;;;;;;5073898;28;20474;-72
2021/01/09 11:02:13;;;;;;;0.95;0.47;;;2.10;92.30;;;;;;5091963;28;20051;-72
2021/01/09 11:04:39;;;;;;;0.40;0.30;;;2.20;92.30;;;;;;5091954;28;20064;-72
2021/01/09 11:07:05;;;;;;;0.45;0.40;;;2.30;92.20;;;;;;5092021;28;20044;-72
2021/01/09 11:09:30;;;;;;;0.80;0.57;;;2.40;92.20;;;;;;5092103;28;20048;-72
2021/01/09 11:11:56;;;;;;;0.50;0.40;;;2.50;92.10;;;;;;5092067;28;20119;-72
2021/01/09 11:14:22;;;;;;;0.30;0.30;;;2.60;92.10;;;;;;5091956;28;20048;-72
2021/01/09 11:16:54;;;;;;;0.85;0.40;;;2.60;92.00;;;;;;5091950;28;20050;-72
2021/01/09 11:19:19;;;;;;;0.85;0.50;;;2.70;92.00;;;;;;5091864;28;20032;-72
2021/01/09 11:21:45;;;;;;;0.50;0.50;;;2.80;92.10;;;;;;5092721;28;20036;-72
2021/01/09 11:24:11;;;;;;;0.35;0.30;;;2.80;92.10;;;;;;5095323;28;20486;-72
2021/01/09 11:26:36;;;;;;;0.88;0.38;;;2.90;92.00;;;;;;5076904;28;20044;-72
2021/01/09 11:29:02;;;;;;;0.85;0.40;;;2.90;92.00;;;;;;5095423;28;20044;-72
2021/01/09 11:31:28;;;;;;;2.38;0.57;;;3.00;92.00;;;;;;5095071;28;20070;-72
2021/01/09 11:33:53;;;;;;;0.73;0.50;;;3.00;91.90;;;;;;5095056;28;20077;-72
2021/01/09 11:36:19;;;;;;;0.40;0.30;;;3.00;91.90;;;;;;5095020;28;20050;-72
2021/01/09 11:38:46;;;;;;;0.75;0.60;;;3.00;92.00;;;;;;5095111;28;20036;-72
2021/01/09 11:41:13;;;;;;;1.23;0.60;;;3.10;92.10;;;;;;5095078;28;20044;-72
2021/01/09 11:43:41;;;;;;;0.85;0.60;;;3.10;92.10;;;;;;5095022;28;20040;-72
2021/01/09 11:46:07;;;;;;;0.93;0.70;;;3.30;92.00;;;;;;5094713;28;20094;-72
2021/01/09 11:48:33;;;;;;;0.60;0.52;;;3.40;92.30;;;;;;5094854;28;20626;-72
2021/01/09 11:50:59;;;;;;;0.88;0.50;;;3.50;91.90;;;;;;5076566;28;20097;-72
2021/01/09 11:53:25;;;;;;;1.17;0.60;;;3.70;91.80;;;;;;5095118;28;20048;-72
2021/01/09 11:55:51;;;;;;;0.77;0.47;;;3.80;91.70;;;;;;5094663;28;20078;-72
2021/01/09 11:58:17;;;;;;;0.60;0.50;;;3.80;91.60;;;;;;5094642;28;20040;-72
2021/01/09 12:00:46;;;;;;;1.23;0.70;;;3.80;91.60;;;;;;5094544;28;20102;-72
2021/01/09 12:03:12;;;;;;;0.55;0.50;;;3.70;91.60;;;;;;5094787;28;20036;-72
2021/01/09 12:05:38;;;;;;;1.35;0.80;;;3.70;91.60;;;;;;5094589;28;20122;-72
2021/01/09 12:08:05;;;;;;;1.88;0.68;;;3.80;91.70;;;;;;5094408;28;20063;-72
2021/01/09 12:10:32;;;;;;;0.77;0.68;;;3.80;91.80;;;;;;5094842;28;20044;-72
2021/01/09 12:12:58;;;;;;;1.23;0.82;;;3.80;91.80;;;;;;5094434;28;20482;-72
2021/01/09 12:15:23;;;;;;;0.98;0.75;;;3.90;91.80;;;;;;5094393;28;20039;-72
2021/01/09 12:17:49;;;;;;;0.70;0.68;;;4.00;92.10;;;;;;5094780;28;20071;-72
2021/01/09 12:20:15;;;;;;;1.45;0.82;;;4.10;91.80;;;;;;5094288;28;20047;-72
2021/01/09 12:22:41;;;;;;;1.63;0.90;;;4.20;91.80;;;;;;5094411;28;20490;-72
2021/01/09 12:25:07;;;;;;;0.90;0.68;;;4.40;91.70;;;;;;5094139;28;20122;-72
2021/01/09 12:27:33;;;;;;;1.50;0.88;;;4.40;91.60;;;;;;5094008;28;20493;-72
2021/01/09 12:29:59;;;;;;;1.00;0.88;;;4.50;91.60;;;;;;5094094;28;20043;-72
2021/01/09 12:32:24;;;;;;;2.13;0.90;;;4.60;91.50;;;;;;5093923;28;20123;-72
2021/01/09 12:34:50;;;;;;;1.17;0.82;;;4.70;91.40;;;;;;5094030;28;20064;-72
2021/01/09 12:37:16;;;;;;;1.05;0.73;;;4.80;91.40;;;;;;5075963;28;20127;-72
2021/01/09 12:39:42;;;;;;;1.85;0.85;;;4.90;91.30;;;;;;5076361;28;20036;-72
2021/01/09 12:42:08;;;;;;;2.08;0.73;;;4.90;91.30;;;;;;5094613;28;20050;-72
2021/01/09 12:44:34;;;;;;;1.65;0.80;;;5.00;91.30;;;;;;5093897;28;20044;-72
2021/01/09 12:47:00;;;;;;;2.00;0.95;;;5.10;91.30;;;;;;5093665;28;20098;-72
2021/01/09 12:49:25;;;;;;;1.30;0.75;;;5.20;91.30;;;;;;5093893;28;20044;-72
2021/01/09 12:51:52;;;;;;;1.42;0.75;;;5.20;91.20;;;;;;5093709;28;20489;-72
2021/01/09 12:54:18;;;;;;;0.93;0.70;;;5.30;91.20;;;;;;5093741;28;20433;-73
2021/01/09 12:56:44;;;;;;;1.55;0.90;;;5.40;91.20;;;;;;5075548;28;20550;-72
2021/01/09 12:59:12;;;;;;;1.23;0.93;;;5.50;91.10;;;;;;5093756;28;20398;-72